createdAt,value
2023-05-15T00:03:46.012Z,15.84
2023-05-15T00:12:21.165Z,15.65
2023-05-15T00:13:50.541Z,15.68
2023-05-15T00:16:27.796Z,15.65
2023-05-15T00:25:57.792Z,15.52
2023-05-15T00:31:45.214Z,15.46
2023-05-15T00:35:15.034Z,15.44
2023-05-15T00:38:31.751Z,15.42
2023-05-15T00:40:31.535Z,15.40
2023-05-15T00:44:11.837Z,15.37
2023-05-15T00:46:14.350Z,15.35
2023-05-15T00:47:43.843Z,15.35
2023-05-15T00:50:01.613Z,15.33
2023-05-15T00:52:57.052Z,15.35
2023-05-15T00:57:12.769Z,15.31
2023-05-15T01:01:37.946Z,15.31
2023-05-15T01:03:09.759Z,15.31
2023-05-15T01:07:34.883Z,15.28
2023-05-15T01:12:12.786Z,15.15
2023-05-15T01:14:04.372Z,15.04
2023-05-15T01:16:35.129Z,14.91
2023-05-15T01:18:38.673Z,14.88
2023-05-15T01:20:07.747Z,14.85
2023-05-15T01:23:36.024Z,14.73
2023-05-15T01:25:05.879Z,14.70
2023-05-15T01:26:39.350Z,14.69
2023-05-15T01:30:23.131Z,14.62
2023-05-15T01:32:32.470Z,14.63
2023-05-15T01:34:22.264Z,14.60
2023-05-15T01:37:00.302Z,14.62
2023-05-15T01:39:37.819Z,14.62
2023-05-15T01:45:11.355Z,14.48
2023-05-15T01:47:32.797Z,14.44
2023-05-15T01:49:04.035Z,14.43
2023-05-15T01:52:17.552Z,14.35
2023-05-15T01:54:16.884Z,14.35
2023-05-15T02:01:39.409Z,14.22
2023-05-15T02:04:01.792Z,14.18
2023-05-15T02:11:19.674Z,14.25
2023-05-15T02:12:52.359Z,14.26
2023-05-15T02:14:20.433Z,14.25
2023-05-15T02:15:56.164Z,14.25
2023-05-15T02:17:43.673Z,14.28
2023-05-15T02:19:15.729Z,14.22
2023-05-15T02:21:02.423Z,14.18
2023-05-15T02:29:45.959Z,14.11
2023-05-15T02:31:48.562Z,14.12
2023-05-15T02:35:00.652Z,14.11
2023-05-15T02:38:41.425Z,14.03
2023-05-15T02:42:32.136Z,13.95
2023-05-15T02:44:02.085Z,13.95
2023-05-15T02:45:51.786Z,13.97
2023-05-15T02:49:52.153Z,14.03
2023-05-15T02:53:07.955Z,14.05
2023-05-15T02:55:45.815Z,13.99
2023-05-15T02:58:38.514Z,13.99
2023-05-15T03:02:20.099Z,14.03
2023-05-15T03:04:19.180Z,14.00
2023-05-15T03:05:49.096Z,14.00
2023-05-15T03:08:12.760Z,13.97
2023-05-15T03:11:10.860Z,13.92
2023-05-15T03:18:22.904Z,13.75
2023-05-15T03:20:17.890Z,13.78
2023-05-15T03:23:38.006Z,13.79
2023-05-15T03:25:33.747Z,13.83
2023-05-15T03:27:34.661Z,13.78
2023-05-15T03:30:57.937Z,13.70
2023-05-15T03:33:28.410Z,13.57
2023-05-15T03:35:46.007Z,13.50
2023-05-15T03:37:36.677Z,13.49
2023-05-15T03:39:04.809Z,13.50
2023-05-15T03:42:24.795Z,13.49
2023-05-15T03:44:54.615Z,13.52
2023-05-15T03:47:30.844Z,13.53
2023-05-15T03:49:57.712Z,13.56
2023-05-15T03:51:51.132Z,13.56
2023-05-15T03:55:09.099Z,13.50
2023-05-15T03:57:25.224Z,13.46
2023-05-15T03:59:52.181Z,13.44
2023-05-15T04:03:26.664Z,13.39
2023-05-15T04:06:11.024Z,13.42
2023-05-15T04:08:41.535Z,13.37
2023-05-15T04:12:33.380Z,13.27
2023-05-15T04:17:08.406Z,13.27
2023-05-15T04:22:31.081Z,13.22
2023-05-15T04:24:03.911Z,13.27
2023-05-15T04:29:04.120Z,13.22
2023-05-15T04:30:29.867Z,13.23
2023-05-15T04:31:57.975Z,13.22
2023-05-15T04:34:30.754Z,13.28
2023-05-15T04:35:58.646Z,13.30
2023-05-15T04:41:08.809Z,13.31
2023-05-15T04:47:52.617Z,12.94
2023-05-15T04:50:09.320Z,12.93
2023-05-15T04:54:25.782Z,12.97
2023-05-15T04:57:04.992Z,13.05
2023-05-15T04:59:38.580Z,13.11
2023-05-15T05:02:03.603Z,13.12
2023-05-15T05:04:23.425Z,13.16
2023-05-15T05:07:22.454Z,13.16
2023-05-15T05:10:25.144Z,13.18
2023-05-15T05:12:23.305Z,13.16
2023-05-15T05:13:52.349Z,13.15
2023-05-15T05:17:55.673Z,13.20
2023-05-15T05:29:21.608Z,13.37
2023-05-15T05:32:47.221Z,13.38
2023-05-15T05:36:33.391Z,13.44
2023-05-15T05:38:32.743Z,13.46
2023-05-15T05:42:18.405Z,13.47
2023-05-15T05:44:55.961Z,13.31
2023-05-15T05:46:57.592Z,13.27
2023-05-15T05:48:57.831Z,13.27
2023-05-15T05:50:26.775Z,13.30
2023-05-15T05:51:58.987Z,13.28
2023-05-15T05:55:32.727Z,13.19
2023-05-15T05:59:02.375Z,13.00
2023-05-15T06:01:19.205Z,12.97
2023-05-15T06:03:31.000Z,12.93
2023-05-15T06:08:29.633Z,12.82
2023-05-15T06:09:52.431Z,12.86
2023-05-15T06:10:29.609Z,12.90
2023-05-15T06:11:59.652Z,12.93
2023-05-15T06:19:27.305Z,12.75
2023-05-15T06:22:32.710Z,12.79
2023-05-15T06:24:04.279Z,12.82
2023-05-15T06:26:04.146Z,12.87
2023-05-15T06:27:33.376Z,12.91
2023-05-15T06:31:54.088Z,12.93
2023-05-15T06:40:30.044Z,12.43
2023-05-15T06:46:14.287Z,12.37
2023-05-15T06:48:05.581Z,12.36
2023-05-15T06:49:37.837Z,12.40
2023-05-15T06:51:06.888Z,12.49
2023-05-15T06:53:22.819Z,12.54
2023-05-15T06:54:54.659Z,12.64
2023-05-15T06:56:44.416Z,12.61
2023-05-15T06:59:41.380Z,12.62
2023-05-15T07:01:14.213Z,12.68
2023-05-15T07:03:36.104Z,12.75
2023-05-15T07:05:25.995Z,12.82
2023-05-15T07:12:18.756Z,13.05
2023-05-15T07:15:03.515Z,13.12
2023-05-15T07:16:40.040Z,12.98
2023-05-15T07:18:09.240Z,13.04
2023-05-15T07:20:59.315Z,13.18
2023-05-15T07:23:18.125Z,13.20
2023-05-15T07:24:47.378Z,13.28
2023-05-15T07:28:02.547Z,13.33
2023-05-15T07:29:30.559Z,13.35
2023-05-15T07:31:30.571Z,13.37
2023-05-15T07:33:00.555Z,13.37
2023-05-15T07:34:30.458Z,13.39
2023-05-15T07:40:19.611Z,13.60
2023-05-15T07:42:07.503Z,13.68
2023-05-15T07:44:12.462Z,13.74
2023-05-15T07:47:08.124Z,13.87
2023-05-15T07:49:31.236Z,14.00
2023-05-15T07:51:04.630Z,14.10
2023-05-15T07:56:32.859Z,14.41
2023-05-15T07:58:56.499Z,14.50
2023-05-15T08:00:55.210Z,14.60
2023-05-15T08:03:43.492Z,14.72
2023-05-15T08:06:05.040Z,14.77
2023-05-15T08:08:21.862Z,14.91
2023-05-15T08:13:40.248Z,15.25
2023-05-15T08:15:43.874Z,15.24
2023-05-15T08:17:34.765Z,15.39
2023-05-15T08:19:27.723Z,15.55
2023-05-15T08:21:44.562Z,15.72
2023-05-15T08:23:43.838Z,15.80
2023-05-15T08:28:07.506Z,15.98
2023-05-15T08:29:39.681Z,16.05
2023-05-15T08:32:26.621Z,16.24
2023-05-15T08:33:53.818Z,16.29
2023-05-15T08:36:13.742Z,16.41
2023-05-15T08:37:42.872Z,16.47
2023-05-15T08:42:17.081Z,16.60
2023-05-15T08:44:07.107Z,16.75
2023-05-15T08:46:37.326Z,16.96
2023-05-15T08:48:28.754Z,17.01
2023-05-15T08:51:54.283Z,17.05
2023-05-15T08:53:43.777Z,17.12
2023-05-15T08:55:49.607Z,17.22
2023-05-15T08:58:07.988Z,17.36
2023-05-15T09:00:53.259Z,17.56
2023-05-15T09:03:11.336Z,17.63
2023-05-15T09:04:38.486Z,17.71
2023-05-15T09:09:00.807Z,18.05
2023-05-15T09:11:23.343Z,18.13
2023-05-15T09:13:42.991Z,18.26
2023-05-15T09:15:18.956Z,18.34
2023-05-15T09:16:47.921Z,18.37
2023-05-15T09:19:40.111Z,18.49
2023-05-15T09:21:31.015Z,18.66
2023-05-15T09:24:26.483Z,18.96
2023-05-15T09:25:54.921Z,19.11
2023-05-15T09:27:23.284Z,19.16
2023-05-15T09:30:23.572Z,19.19
2023-05-15T09:35:33.802Z,18.98
2023-05-15T09:41:28.469Z,19.52
2023-05-15T09:43:01.975Z,19.66
2023-05-15T09:45:05.098Z,19.79
2023-05-15T09:47:51.696Z,20.02
2023-05-15T09:59:38.347Z,20.72
2023-05-15T10:01:48.511Z,20.84
2023-05-15T10:07:49.528Z,20.82
2023-05-15T10:09:56.193Z,20.85
2023-05-15T10:12:56.209Z,21.06
2023-05-15T10:15:05.405Z,21.09
2023-05-15T10:17:06.252Z,21.03
2023-05-15T10:19:31.594Z,21.18
2023-05-15T10:21:20.823Z,21.39
2023-05-15T10:22:18.674Z,21.48
2023-05-15T10:23:18.754Z,21.42
2023-05-15T10:24:20.440Z,21.51
2023-05-15T10:26:13.183Z,21.73
2023-05-15T10:30:00.440Z,21.85
2023-05-15T10:31:50.546Z,21.62
2023-05-15T10:34:06.342Z,21.70
2023-05-15T10:36:43.800Z,21.82
2023-05-15T10:39:52.518Z,21.99
2023-05-15T10:41:55.613Z,22.26
2023-05-15T10:43:44.918Z,22.51
2023-05-15T10:50:20.365Z,23.12
2023-05-15T10:52:10.876Z,23.13
2023-05-15T10:53:41.513Z,23.36
2023-05-15T10:57:19.168Z,23.56
2023-05-15T10:59:35.142Z,23.84
2023-05-15T11:01:04.287Z,23.87
2023-05-15T11:02:36.053Z,23.99
2023-05-15T11:04:09.233Z,24.01
2023-05-15T11:06:34.152Z,23.86
2023-05-15T11:10:19.987Z,23.80
2023-05-15T11:12:12.510Z,23.91
2023-05-15T11:13:42.299Z,24.10
2023-05-15T11:19:59.485Z,24.39
2023-05-15T11:21:30.387Z,24.39
2023-05-15T11:27:56.106Z,24.66
2023-05-15T11:32:08.335Z,24.24
2023-05-15T11:34:30.946Z,24.70
2023-05-15T11:36:31.873Z,25.26
2023-05-15T11:40:05.233Z,25.36
2023-05-15T11:41:37.345Z,25.53
2023-05-15T11:43:35.801Z,25.75
2023-05-15T11:45:10.603Z,25.85
2023-05-15T11:47:27.572Z,25.78
2023-05-15T11:48:58.390Z,25.65
2023-05-15T11:50:51.079Z,25.68
2023-05-15T11:52:38.506Z,25.95
2023-05-15T11:53:38.713Z,25.91
2023-05-15T11:54:38.477Z,25.88
2023-05-15T11:56:36.331Z,25.77
2023-05-15T11:59:09.090Z,25.55
2023-05-15T12:03:04.881Z,25.36
2023-05-15T12:05:54.145Z,25.60
2023-05-15T12:08:12.397Z,25.83
2023-05-15T12:09:41.310Z,25.70
2023-05-15T12:13:35.218Z,25.53
2023-05-15T12:17:47.874Z,25.46
2023-05-15T12:21:18.936Z,25.41
2023-05-15T12:23:00.047Z,25.32
2023-05-15T12:24:33.277Z,25.29
2023-05-15T12:30:12.379Z,24.85
2023-05-15T12:33:43.795Z,24.96
2023-05-15T12:38:23.440Z,25.10
2023-05-15T12:42:09.920Z,25.26
2023-05-15T12:44:02.148Z,25.14
2023-05-15T12:47:03.389Z,25.40
2023-05-15T12:49:31.706Z,25.31
2023-05-15T12:53:37.761Z,24.86
2023-05-15T12:56:50.159Z,25.17
2023-05-15T12:58:43.188Z,25.32
2023-05-15T13:02:27.728Z,25.44
2023-05-15T13:04:02.679Z,25.58
2023-05-15T13:07:34.360Z,25.84
2023-05-15T13:12:52.247Z,26.06
2023-05-15T13:14:27.442Z,26.00
2023-05-15T13:17:09.537Z,26.03
2023-05-15T13:19:34.057Z,26.77
2023-05-15T13:21:46.536Z,26.65
2023-05-15T13:23:56.248Z,26.31
2023-05-15T13:26:01.278Z,26.55
2023-05-15T13:28:14.318Z,26.00
2023-05-15T13:30:36.506Z,25.90
2023-05-15T13:36:31.054Z,25.98
2023-05-15T13:43:58.971Z,25.87
2023-05-15T13:49:09.688Z,26.26
2023-05-15T13:55:34.972Z,26.18
2023-05-15T14:02:12.784Z,25.35
2023-05-15T14:03:47.407Z,25.31
2023-05-15T14:05:16.747Z,25.44
2023-05-15T14:07:25.923Z,25.53
2023-05-15T14:08:24.947Z,25.62
2023-05-15T14:09:28.476Z,25.29
2023-05-15T14:10:25.854Z,24.98
2023-05-15T14:14:26.244Z,24.50
2023-05-15T14:17:43.256Z,23.86
2023-05-15T14:20:30.830Z,23.21
2023-05-15T14:22:26.263Z,22.99
2023-05-15T14:23:55.808Z,23.06
2023-05-15T14:25:45.436Z,23.18
2023-05-15T14:28:27.534Z,23.20
2023-05-15T14:30:41.891Z,23.23
2023-05-15T14:33:52.558Z,23.78
2023-05-15T14:36:17.740Z,23.74
2023-05-15T14:37:47.238Z,23.71
2023-05-15T14:40:27.478Z,23.86
2023-05-15T14:43:38.982Z,24.08
2023-05-15T14:45:56.491Z,24.06
2023-05-15T14:47:57.817Z,24.26
2023-05-15T14:50:39.290Z,24.28
2023-05-15T14:53:48.181Z,24.06
2023-05-15T14:55:39.176Z,23.93
2023-05-15T14:56:37.640Z,23.99
2023-05-15T14:57:57.642Z,24.11
2023-05-15T14:58:37.344Z,24.24
2023-05-15T15:01:37.979Z,23.98
2023-05-15T15:09:57.383Z,22.73
2023-05-15T15:11:31.424Z,22.62
2023-05-15T15:17:30.542Z,22.26
2023-05-15T15:19:07.558Z,22.25
2023-05-15T15:21:17.373Z,22.22
2023-05-15T15:24:45.321Z,21.98
2023-05-15T15:27:57.986Z,21.67
2023-05-15T15:33:50.402Z,21.32
2023-05-15T15:37:55.752Z,20.82
2023-05-15T15:42:53.853Z,20.70
2023-05-15T15:46:20.724Z,20.63
2023-05-15T15:55:10.976Z,20.80
2023-05-15T15:58:16.067Z,20.67
2023-05-15T16:02:49.500Z,20.34
2023-05-15T16:04:21.305Z,20.37
2023-05-15T16:10:10.787Z,20.32
2023-05-15T16:13:58.125Z,20.09
2023-05-15T16:16:21.817Z,19.95
2023-05-15T16:20:07.380Z,20.00
2023-05-15T16:30:00.784Z,20.39
2023-05-15T16:31:27.162Z,20.19
2023-05-15T16:33:23.051Z,20.07
2023-05-15T16:37:47.962Z,20.13
2023-05-15T16:44:57.285Z,19.66
2023-05-15T16:46:48.387Z,19.56
2023-05-15T16:48:59.160Z,19.51
2023-05-15T16:52:48.358Z,19.47
2023-05-15T16:54:35.306Z,19.44
2023-05-15T16:56:05.127Z,19.39
2023-05-15T16:58:17.037Z,19.48
2023-05-15T16:59:45.358Z,19.55
2023-05-15T17:02:11.760Z,19.51
2023-05-15T17:07:07.511Z,19.08
2023-05-15T17:09:42.710Z,18.90
2023-05-15T17:13:27.724Z,18.92
2023-05-15T17:15:20.396Z,18.73
2023-05-15T17:21:32.344Z,18.44
2023-05-15T17:24:20.020Z,18.66
2023-05-15T17:26:48.433Z,18.70
2023-05-15T17:31:01.063Z,18.75
2023-05-15T17:34:32.635Z,18.86
2023-05-15T17:36:05.389Z,18.89
2023-05-15T17:39:13.939Z,18.95
2023-05-15T17:41:04.847Z,18.95
2023-05-15T17:46:03.575Z,18.74
2023-05-15T17:49:59.705Z,18.63
2023-05-15T17:52:25.258Z,18.53
2023-05-15T17:54:14.025Z,18.53
2023-05-15T17:55:14.381Z,18.52
2023-05-15T17:55:51.352Z,18.49
2023-05-15T17:59:35.473Z,18.34
2023-05-15T18:03:24.418Z,18.04
2023-05-15T18:05:18.870Z,17.95
2023-05-15T18:08:19.948Z,17.85
2023-05-15T18:09:47.464Z,17.87
2023-05-15T18:11:55.064Z,17.89
2023-05-15T18:13:38.778Z,17.92
2023-05-15T18:15:59.812Z,17.80
2023-05-15T18:20:03.464Z,17.74
2023-05-15T18:21:40.057Z,17.71
2023-05-15T18:24:29.874Z,17.72
2023-05-15T18:26:14.490Z,17.79
2023-05-15T18:27:47.340Z,17.71
2023-05-15T18:29:17.654Z,17.59
2023-05-15T18:36:31.278Z,17.44
2023-05-15T18:37:26.531Z,17.39
2023-05-15T18:38:28.321Z,17.41
2023-05-15T18:40:15.293Z,17.48
2023-05-15T18:43:46.614Z,17.39
2023-05-15T18:47:58.254Z,17.22
2023-05-15T18:53:20.830Z,16.99
2023-05-15T18:54:24.881Z,16.93
2023-05-15T18:55:22.592Z,16.91
2023-05-15T18:56:51.206Z,16.87
2023-05-15T19:00:16.857Z,16.89
2023-05-15T19:01:45.663Z,16.79
2023-05-15T19:10:01.367Z,16.42
2023-05-15T19:11:29.533Z,16.50
2023-05-15T19:16:50.420Z,16.29
2023-05-15T19:20:10.958Z,16.28
2023-05-15T19:23:46.749Z,16.28
2023-05-15T19:28:01.559Z,16.21
2023-05-15T19:30:20.891Z,16.08
2023-05-15T19:32:42.990Z,16.09
2023-05-15T19:35:02.575Z,15.95
2023-05-15T19:36:02.533Z,15.98
2023-05-15T19:37:02.626Z,16.00
2023-05-15T19:38:36.342Z,15.91
2023-05-15T19:43:20.851Z,15.83
2023-05-15T19:45:43.844Z,15.79
2023-05-15T19:47:16.255Z,15.77
2023-05-15T19:49:33.462Z,15.68
2023-05-15T19:51:23.935Z,15.59
2023-05-15T19:54:51.479Z,15.62
2023-05-15T19:58:42.330Z,15.61
2023-05-15T20:02:47.761Z,15.59
2023-05-15T20:05:59.885Z,15.61
2023-05-15T20:07:47.637Z,15.61
2023-05-15T20:12:23.689Z,15.70
2023-05-15T20:14:46.463Z,15.58
2023-05-15T20:16:16.524Z,15.62
2023-05-15T20:17:48.996Z,15.61
2023-05-15T20:20:26.935Z,15.64
2023-05-15T20:21:57.593Z,15.62
2023-05-15T20:24:09.089Z,15.51
2023-05-15T20:27:29.558Z,15.27
2023-05-15T20:29:30.869Z,15.24
2023-05-15T20:33:30.635Z,14.96
2023-05-15T20:36:37.975Z,14.96
2023-05-15T20:38:11.673Z,14.94
2023-05-15T20:40:21.622Z,14.94
2023-05-15T20:42:26.129Z,14.91
2023-05-15T20:43:59.735Z,14.89
2023-05-15T20:45:31.814Z,14.86
2023-05-15T20:47:05.498Z,14.88
2023-05-15T20:51:35.725Z,14.78
2023-05-15T20:56:47.964Z,14.63
2023-05-15T20:58:31.637Z,14.66
2023-05-15T21:00:06.267Z,14.62
2023-05-15T21:03:39.065Z,14.60
2023-05-15T21:06:25.775Z,14.59
2023-05-15T21:09:00.394Z,14.53
2023-05-15T21:11:10.230Z,14.48
2023-05-15T21:12:07.110Z,14.45
2023-05-15T21:13:28.112Z,14.48
2023-05-15T21:16:15.428Z,14.45
2023-05-15T21:18:04.876Z,14.47
2023-05-15T21:21:01.504Z,14.45
2023-05-15T21:24:06.423Z,14.60
2023-05-15T21:26:28.189Z,14.66
2023-05-15T21:29:15.440Z,14.50
2023-05-15T21:32:02.280Z,14.41
2023-05-15T21:33:31.098Z,14.33
2023-05-15T21:37:02.477Z,14.36
2023-05-15T21:39:00.486Z,14.41
2023-05-15T21:42:02.809Z,14.20
2023-05-15T21:51:47.529Z,14.03
2023-05-15T21:54:27.992Z,13.93
2023-05-15T21:57:37.204Z,13.86
2023-05-15T21:59:31.563Z,13.92
2023-05-15T22:00:58.936Z,13.92
2023-05-15T22:05:01.559Z,13.78
2023-05-15T22:06:40.099Z,13.77
2023-05-15T22:07:40.785Z,13.74
2023-05-15T22:08:43.055Z,13.77
2023-05-15T22:09:45.407Z,13.78
2023-05-15T22:21:11.164Z,13.53
2023-05-15T22:23:51.468Z,13.44
2023-05-15T22:26:49.902Z,13.53
2023-05-15T22:30:05.589Z,13.52
2023-05-15T22:31:55.243Z,13.60
2023-05-15T22:35:44.198Z,13.50
2023-05-15T22:37:31.402Z,13.44
2023-05-15T22:43:32.060Z,13.52
2023-05-15T22:45:11.979Z,13.35
2023-05-15T22:50:32.321Z,13.16
2023-05-15T22:55:58.396Z,13.22
2023-05-15T22:57:48.180Z,13.22
2023-05-15T23:04:43.069Z,13.27
2023-05-15T23:08:43.369Z,13.19
2023-05-15T23:16:29.071Z,12.87
2023-05-15T23:18:25.499Z,12.93
2023-05-15T23:20:45.196Z,12.82
2023-05-15T23:22:15.094Z,12.80
2023-05-15T23:29:59.899Z,12.80
2023-05-15T23:32:02.275Z,12.70
2023-05-15T23:34:23.632Z,12.67
2023-05-15T23:38:15.750Z,12.67
2023-05-15T23:41:40.569Z,12.75
2023-05-15T23:43:33.046Z,12.67
2023-05-15T23:46:55.556Z,12.64
2023-05-15T23:52:55.033Z,12.64
2023-05-15T23:55:14.379Z,12.65
2023-05-15T23:59:38.546Z,12.72
